»·PEaware :: AAL6744 KPHX-KSFO

AAL6744 :: KPHX-KSFO

FLIGHT INFORMATION

Flight Status: Arrived
Operator:
American Airlines
More flights by this operator :: More flights under this callsign
Pilot: Anonymous 15267 (15267)
Aircraft: Unknown
(B788)
More flights by this aircraft type
Origin: KPHX Phoenix Sky Harbor Intl
United States
Destination: KSFO San Francisco Intl
United States
More flights between these airports :: More routes between these airports
Route: +KEENS2 HRRBR CURIV J212 DECAS PMD AVE MAKRS SERFR SERFR3
File this flight plan on PilotEdge
Remarks:
Altitude:
(Current/Filed)
40,000ft
Speed:
(Current/Filed)
450kts
Departed: 22-Jan-19 10:58 AM
Arrived: 22-Jan-19 12:40 PM
Distance/Time
Traveled:
565nm/1:41
Distance/Time
To Go:
Arrived

Flight Plot

Page will automatically refresh every two minutes.

Flight plan parsing failed; only flown route is shown


Map Options




Map Legend


Flown Route
Filed Route
Departure Airport
Arrival Airport
Navaid (VOR, NDB)
Fix

Horizontal Profiles

Position Reports

Time Latitude Longitude Heading Altitude Ground
Speed
22-Jan-19 10:05 33.434101 -112.009444 82 1148ft 0kts
22-Jan-19 10:06 33.434101 -112.009444 82 1148ft 0kts
22-Jan-19 10:07 33.434101 -112.009444 82 1148ft 0kts
22-Jan-19 10:08 33.434101 -112.009444 82 1148ft 0kts
22-Jan-19 10:09 33.434101 -112.009444 82 1148ft 0kts
22-Jan-19 10:10 33.434101 -112.009444 82 1148ft 0kts
22-Jan-19 10:11 33.434101 -112.009444 82 1148ft 0kts
22-Jan-19 10:12 33.434101 -112.009444 82 1148ft 0kts
22-Jan-19 10:13 33.434101 -112.009444 82 1148ft 0kts
22-Jan-19 10:14 33.434101 -112.009444 82 1148ft 0kts
22-Jan-19 10:15 33.434101 -112.009444 82 1148ft 0kts
22-Jan-19 10:16 33.434101 -112.009444 82 1148ft 0kts
22-Jan-19 10:17 33.434101 -112.009444 82 1148ft 0kts
22-Jan-19 10:18 33.434101 -112.009444 82 1148ft 0kts
22-Jan-19 10:19 33.434101 -112.009444 82 1148ft 0kts
22-Jan-19 10:20 33.434101 -112.009444 82 1148ft 0kts
22-Jan-19 10:21 33.434101 -112.009444 82 1148ft 0kts
22-Jan-19 10:22 33.434101 -112.009444 82 1148ft 0kts
22-Jan-19 10:23 33.434101 -112.009444 82 1148ft 0kts
22-Jan-19 10:24 33.434101 -112.009444 82 1148ft 0kts
22-Jan-19 10:25 33.434101 -112.009444 82 1148ft 0kts
22-Jan-19 10:26 33.434101 -112.009444 82 1148ft 0kts
22-Jan-19 10:27 33.434101 -112.009444 82 1148ft 0kts
22-Jan-19 10:28 33.434101 -112.009444 82 1148ft 0kts
22-Jan-19 10:29 33.434101 -112.009444 82 1148ft 0kts
22-Jan-19 10:30 33.434101 -112.009444 82 1148ft 0kts
22-Jan-19 10:31 33.434101 -112.009444 82 1148ft 0kts
22-Jan-19 10:32 33.434101 -112.009444 82 1148ft 0kts
22-Jan-19 10:33 33.434101 -112.009444 82 1148ft 0kts
22-Jan-19 10:34 33.434101 -112.009444 82 1148ft 0kts
22-Jan-19 10:35 33.434101 -112.009444 82 1148ft 0kts
22-Jan-19 10:36 33.434101 -112.009444 82 1148ft 0kts
22-Jan-19 10:37 33.434101 -112.009444 82 1148ft 0kts
22-Jan-19 10:38 33.434101 -112.009444 82 1148ft 0kts
22-Jan-19 10:39 33.434101 -112.009444 82 1148ft 0kts
22-Jan-19 10:40 33.434101 -112.009444 82 1148ft 0kts
22-Jan-19 10:41 33.434101 -112.009444 82 1148ft 0kts
22-Jan-19 10:42 33.434100 -112.009444 82 1148ft 0kts
22-Jan-19 10:43 33.434279 -112.009952 166 1148ft 2kts
22-Jan-19 10:44 33.434605 -112.009970 179 1148ft 0kts
22-Jan-19 10:45 33.434602 -112.009970 179 1148ft 0kts
22-Jan-19 10:46 33.434598 -112.009970 179 1148ft 0kts
22-Jan-19 10:47 33.433982 -112.009951 177 1148ft 0kts
22-Jan-19 10:48 33.432837 -112.009933 181 1148ft 9kts
22-Jan-19 10:49 33.432128 -112.005530 89 1148ft 22kts
22-Jan-19 10:50 33.432141 -111.998198 90 1148ft 23kts
22-Jan-19 10:51 33.432104 -111.994175 90 1148ft 0kts
22-Jan-19 10:52 33.432104 -111.994171 90 1148ft 0kts
22-Jan-19 10:53 33.432104 -111.994166 90 1148ft 0kts
22-Jan-19 10:54 33.432104 -111.994162 90 1148ft 0kts
22-Jan-19 10:55 33.432104 -111.994158 90 1148ft 0kts
22-Jan-19 10:56 33.431055 -111.994093 263 1148ft 9kts
22-Jan-19 10:57 33.430938 -112.030488 272 2443ft 170kts
22-Jan-19 10:58 33.419044 -112.092591 255 5019ft 245kts
22-Jan-19 10:59 33.396065 -112.177557 256 8493ft 284kts
22-Jan-19 11:00 33.401292 -112.274101 283 11365ft 324kts
22-Jan-19 11:01 33.418741 -112.385869 282 14494ft 346kts
22-Jan-19 11:02 33.435691 -112.501153 283 17460ft 355kts
22-Jan-19 11:03 33.463829 -112.614358 285 20041ft 361kts
22-Jan-19 11:04 33.457795 -112.739541 268 22090ft 385kts
22-Jan-19 11:05 33.452757 -112.867641 292 23957ft 380kts
22-Jan-19 11:06 33.483911 -112.989346 289 25938ft 394kts
22-Jan-19 11:07 33.508328 -113.118762 291 27792ft 404kts
22-Jan-19 11:08 33.533971 -113.251355 292 29489ft 414kts
22-Jan-19 11:10 33.560186 -113.387798 292 31072ft 424kts
22-Jan-19 11:11 33.586764 -113.527236 291 32541ft 434kts
22-Jan-19 11:12 33.613241 -113.668015 291 34686ft 427kts
22-Jan-19 11:13 33.639008 -113.807394 289 36515ft 425kts
22-Jan-19 11:14 33.662741 -113.945686 289 38152ft 421kts
22-Jan-19 11:15 33.685964 -114.082361 288 39643ft 415kts
22-Jan-19 11:16 33.708974 -114.218571 288 40307ft 418kts
22-Jan-19 11:17 33.732037 -114.356170 288 40322ft 422kts
22-Jan-19 11:18 33.754988 -114.494648 287 40320ft 422kts
22-Jan-19 11:19 33.775463 -114.633446 284 40317ft 423kts
22-Jan-19 11:20 33.788664 -114.774447 283 40330ft 425kts
22-Jan-19 11:21 33.802049 -114.915879 283 40325ft 425kts
22-Jan-19 11:22 33.815221 -115.056897 283 40328ft 424kts
22-Jan-19 11:23 33.828205 -115.197900 283 40353ft 424kts
22-Jan-19 11:24 33.840957 -115.338971 283 40371ft 424kts
22-Jan-19 11:25 33.853490 -115.480171 283 40390ft 424kts
22-Jan-19 11:26 33.879436 -115.617426 294 40392ft 419kts
22-Jan-19 11:27 33.918984 -115.748349 296 40399ft 413kts
22-Jan-19 11:28 33.959925 -115.877399 296 40422ft 412kts
22-Jan-19 11:29 34.000803 -116.006049 296 40430ft 411kts
22-Jan-19 11:30 34.041405 -116.134370 296 40452ft 411kts
22-Jan-19 11:30 34.075474 -116.242398 296 40436ft 411kts
22-Jan-19 11:32 34.122653 -116.392697 296 40428ft 411kts
22-Jan-19 11:33 34.163007 -116.521832 296 40399ft 412kts
22-Jan-19 11:34 34.203424 -116.651735 296 40371ft 413kts
22-Jan-19 11:35 34.243621 -116.781452 296 40351ft 413kts
22-Jan-19 11:36 34.283756 -116.911591 296 40348ft 413kts
22-Jan-19 11:36 34.317158 -117.020327 296 40362ft 413kts
22-Jan-19 11:37 34.356246 -117.148135 296 40375ft 413kts
22-Jan-19 11:38 34.396111 -117.279020 296 40402ft 413kts
22-Jan-19 11:39 34.437527 -117.409131 297 40424ft 413kts
22-Jan-19 11:40 34.479708 -117.538030 297 40419ft 412kts
22-Jan-19 11:41 34.521849 -117.667372 297 40411ft 412kts
22-Jan-19 11:42 34.563850 -117.796924 297 40419ft 412kts
22-Jan-19 11:43 34.605501 -117.926132 297 40444ft 412kts
22-Jan-19 11:44 34.647020 -118.055798 297 40449ft 411kts
22-Jan-19 11:45 34.697460 -118.179945 305 40442ft 409kts
22-Jan-19 11:46 34.758148 -118.296357 307 40450ft 406kts
22-Jan-19 11:47 34.819918 -118.411149 307 40424ft 405kts
22-Jan-19 11:48 34.881738 -118.525980 307 40399ft 405kts
22-Jan-19 11:49 34.943514 -118.641032 307 40399ft 405kts
22-Jan-19 11:50 35.005153 -118.756186 307 40402ft 406kts
22-Jan-19 11:51 35.066222 -118.870655 307 40405ft 406kts
22-Jan-19 11:52 35.127715 -118.986287 307 40419ft 406kts
22-Jan-19 11:54 35.199462 -119.121709 307 40449ft 406kts
22-Jan-19 11:54 35.250516 -119.218386 307 40444ft 406kts
22-Jan-19 11:55 35.310762 -119.335669 304 40415ft 407kts
22-Jan-19 11:56 35.365639 -119.455625 304 39175ft 399kts
22-Jan-19 11:57 35.418882 -119.572469 304 37862ft 386kts
22-Jan-19 11:58 35.463990 -119.689798 299 36560ft 378kts
22-Jan-19 11:59 35.504843 -119.807843 299 35257ft 372kts
22-Jan-19 12:00 35.544634 -119.923365 299 33958ft 364kts
22-Jan-19 12:01 35.583614 -120.037049 299 32673ft 356kts
22-Jan-19 12:02 35.621499 -120.148033 299 32446ft 353kts
22-Jan-19 12:03 35.659437 -120.259646 299 32447ft 353kts
22-Jan-19 12:04 35.697170 -120.371280 298 32460ft 353kts
22-Jan-19 12:05 35.736854 -120.481982 300 32448ft 353kts
22-Jan-19 12:06 35.778258 -120.591750 300 32444ft 353kts
22-Jan-19 12:07 35.823557 -120.699082 304 32454ft 352kts
22-Jan-19 12:08 35.871749 -120.804345 304 32460ft 352kts
22-Jan-19 12:09 35.920626 -120.911208 303 32351ft 377kts
22-Jan-19 12:10 35.971985 -121.032613 295 32073ft 420kts
22-Jan-19 12:11 36.011510 -121.169958 293 31764ft 424kts
22-Jan-19 12:12 36.050667 -121.306952 294 31270ft 419kts
22-Jan-19 12:13 36.126997 -121.402280 327 29002ft 384kts
22-Jan-19 12:14 36.215053 -121.471437 329 27036ft 364kts
22-Jan-19 12:15 36.298670 -121.539023 327 25336ft 353kts
22-Jan-19 12:17 36.392728 -121.615577 327 23365ft 344kts
22-Jan-19 12:17 36.458433 -121.669615 327 21951ft 337kts
22-Jan-19 12:19 36.548010 -121.744301 327 19968ft 328kts
22-Jan-19 12:19 36.610518 -121.797161 327 18546ft 322kts
22-Jan-19 12:20 36.684609 -121.858474 329 16844ft 316kts
22-Jan-19 12:21 36.763332 -121.902509 346 15142ft 308kts
22-Jan-19 12:22 36.844874 -121.928773 346 13441ft 298kts
22-Jan-19 12:23 36.924042 -121.955110 347 11737ft 291kts
22-Jan-19 12:24 36.998918 -121.981335 345 10441ft 272kts
22-Jan-19 12:25 37.068697 -122.008230 345 9446ft 255kts
22-Jan-19 12:26 37.135293 -122.034039 346 8450ft 247kts
22-Jan-19 12:27 37.199521 -122.056290 347 7989ft 232kts
22-Jan-19 12:28 37.261501 -122.077781 347 7997ft 227kts
22-Jan-19 12:29 37.316801 -122.099583 345 7802ft 206kts
22-Jan-19 12:30 37.374329 -122.120794 347 5993ft 215kts
22-Jan-19 12:31 37.428125 -122.139598 347 4848ft 196kts
22-Jan-19 12:32 37.477000 -122.156537 347 3792ft 160kts
22-Jan-19 12:33 37.516481 -122.170566 347 3115ft 144kts
22-Jan-19 12:34 37.545905 -122.201427 303 2819ft 151kts
22-Jan-19 12:35 37.565943 -122.249394 302 1943ft 155kts
22-Jan-19 12:36 37.586121 -122.297468 301 1119ft 151kts
22-Jan-19 12:37 37.605537 -122.343678 301 330ft 146kts
22-Jan-19 12:38 37.618865 -122.375429 298 25ft 53kts
22-Jan-19 12:39 37.619217 -122.381056 285 25ft 11kts
22-Jan-19 12:40 37.618835 -122.383590 294 25ft 4kts

Navigation Log

Ident Type
Flight plan parsing failed, navigation log unavailable